createdAt,value
2018-12-12T00:00:04.853Z,36.13
2018-12-12T00:02:32.295Z,36.77
2018-12-12T00:04:59.727Z,37.50
2018-12-12T00:07:33.181Z,37.57
2018-12-12T00:10:00.616Z,35.93
2018-12-12T00:12:28.070Z,36.10
2018-12-12T00:14:55.535Z,39.87
2018-12-12T00:17:26.351Z,37.43
2018-12-12T00:19:53.790Z,35.73
2018-12-12T00:22:21.252Z,34.23
2018-12-12T00:24:48.696Z,39.10
2018-12-12T00:27:19.484Z,39.53
2018-12-12T00:29:46.930Z,34.47
2018-12-12T00:32:14.376Z,37.37
2018-12-12T00:34:41.804Z,32.70
2018-12-12T00:37:12.866Z,36.73
2018-12-12T00:39:40.313Z,39.77
2018-12-12T00:42:07.785Z,35.93
2018-12-12T00:44:35.220Z,46.67
2018-12-12T00:47:05.834Z,35.13
2018-12-12T00:49:33.259Z,29.50
2018-12-12T00:52:00.714Z,33.90
2018-12-12T00:54:28.488Z,33.73
2018-12-12T00:56:59.681Z,29.00
2018-12-12T00:59:27.117Z,40.20
2018-12-12T01:01:54.616Z,33.53
2018-12-12T01:04:22.040Z,37.43
2018-12-12T01:06:52.690Z,37.07
2018-12-12T01:09:20.161Z,40.63
2018-12-12T01:11:53.353Z,37.03
2018-12-12T01:14:20.795Z,36.87
2018-12-12T01:16:51.847Z,37.73
2018-12-12T01:19:19.278Z,34.50
2018-12-12T01:21:46.747Z,35.23
2018-12-12T01:24:20.259Z,33.27
2018-12-12T01:26:51.526Z,34.00
2018-12-12T01:29:19.028Z,34.17
2018-12-12T01:31:46.474Z,35.63
2018-12-12T01:34:13.903Z,40.63
2018-12-12T01:36:44.630Z,38.40
2018-12-12T01:39:12.063Z,38.53
2018-12-12T01:41:39.503Z,36.70
2018-12-12T01:44:06.943Z,39.13
2018-12-12T01:46:37.304Z,33.80
2018-12-12T01:49:04.793Z,40.80
2018-12-12T01:51:32.273Z,37.47
2018-12-12T01:53:59.801Z,35.63
2018-12-12T01:56:30.349Z,35.30
2018-12-12T01:58:57.788Z,38.57
2018-12-12T02:01:25.222Z,36.80
2018-12-12T02:03:52.654Z,39.10
2018-12-12T02:06:23.320Z,40.83
2018-12-12T02:08:50.742Z,41.37
2018-12-12T02:11:18.170Z,46.57
2018-12-12T02:13:45.639Z,41.93
2018-12-12T02:16:16.764Z,48.50
2018-12-12T02:18:44.526Z,49.93
2018-12-12T02:21:11.966Z,44.13
2018-12-12T02:23:39.404Z,41.67
2018-12-12T02:26:09.795Z,42.07
2018-12-12T02:28:37.258Z,43.83
2018-12-12T02:31:04.855Z,41.97
2018-12-12T02:33:32.287Z,43.17
2018-12-12T02:36:03.633Z,41.30
2018-12-12T02:38:31.064Z,40.83
2018-12-12T02:40:58.502Z,40.87
2018-12-12T02:43:25.936Z,41.17
2018-12-12T02:45:56.421Z,41.00
2018-12-12T02:48:25.078Z,43.47
2018-12-12T02:50:52.520Z,43.17
2018-12-12T02:53:19.953Z,41.47
2018-12-12T02:55:50.557Z,49.57
2018-12-12T02:58:23.758Z,42.27
2018-12-12T03:00:57.381Z,50.73
2018-12-12T03:03:24.811Z,47.17
2018-12-12T03:05:55.587Z,49.27
2018-12-12T03:08:23.099Z,46.40
2018-12-12T03:10:50.542Z,46.57
2018-12-12T03:13:18.055Z,49.03
2018-12-12T03:15:48.528Z,46.70
2018-12-12T03:18:15.955Z,49.13
2018-12-12T03:20:43.512Z,91.90
2018-12-12T03:23:14.493Z,130.20
2018-12-12T03:25:44.970Z,78.83
2018-12-12T03:28:12.405Z,125.70
2018-12-12T03:30:39.849Z,183.03
2018-12-12T03:33:07.284Z,90.83
2018-12-12T03:35:37.922Z,129.63
2018-12-12T03:38:05.360Z,73.47
2018-12-12T03:40:33.426Z,207.47
2018-12-12T03:43:00.891Z,131.60
2018-12-12T03:45:31.904Z,117.73
2018-12-12T03:47:59.342Z,213.33
2018-12-12T03:50:26.791Z,176.77
2018-12-12T03:52:54.219Z,123.90
2018-12-12T03:55:27.700Z,161.73
2018-12-12T03:57:55.269Z,96.00
2018-12-12T04:00:22.727Z,169.30
2018-12-12T04:02:50.181Z,106.35
2018-12-12T04:05:21.063Z,116.05
2018-12-12T04:07:48.517Z,153.60
2018-12-12T04:10:15.985Z,85.47
2018-12-12T04:12:43.447Z,135.27
2018-12-12T04:15:11.603Z,98.07
2018-12-12T04:17:39.056Z,106.73
2018-12-12T04:20:06.560Z,124.33
2018-12-12T04:22:39.909Z,170.13
2018-12-12T04:25:09.079Z,180.87
2018-12-12T04:27:36.611Z,138.17
2018-12-12T04:30:05.794Z,172.00
2018-12-12T04:32:38.942Z,127.37
2018-12-12T04:35:12.067Z,128.00
2018-12-12T04:37:39.645Z,75.67
2018-12-12T04:40:07.147Z,123.70
2018-12-12T04:42:34.643Z,176.82
2018-12-12T04:45:02.615Z,113.13
2018-12-12T04:47:33.177Z,224.43
2018-12-12T04:50:06.839Z,211.67
2018-12-12T04:52:40.417Z,140.47
2018-12-12T04:55:08.562Z,74.27
2018-12-12T04:57:41.799Z,105.20
2018-12-12T05:00:15.657Z,108.60
2018-12-12T05:02:49.662Z,140.77
2018-12-12T05:05:20.914Z,143.57
2018-12-12T05:07:54.503Z,82.53
2018-12-12T05:10:28.344Z,140.40
2018-12-12T05:13:01.804Z,86.53
2018-12-12T05:15:32.607Z,200.20
2018-12-12T05:18:00.090Z,192.17
2018-12-12T05:20:27.554Z,236.13
2018-12-12T05:22:55.015Z,67.77
2018-12-12T05:25:25.432Z,98.47
2018-12-12T05:27:52.904Z,228.23
2018-12-12T05:30:20.373Z,206.00
2018-12-12T05:32:47.840Z,84.47
2018-12-12T05:35:18.265Z,70.47
2018-12-12T05:37:50.804Z,89.77
2018-12-12T05:40:15.395Z,74.35
2018-12-12T05:42:42.971Z,61.13
2018-12-12T05:45:10.789Z,73.47
2018-12-12T05:47:38.284Z,88.10
2018-12-12T05:50:05.800Z,163.93
2018-12-12T05:52:36.843Z,64.90
2018-12-12T05:55:04.841Z,153.00
2018-12-12T05:57:32.815Z,80.00
2018-12-12T06:00:00.294Z,115.63
2018-12-12T06:02:33.721Z,91.57
2018-12-12T06:05:01.466Z,67.10
2018-12-12T06:07:28.881Z,83.37
2018-12-12T06:09:56.345Z,82.17
2018-12-12T06:12:23.780Z,150.60
2018-12-12T06:14:51.230Z,198.33
2018-12-12T06:17:22.096Z,86.20
2018-12-12T06:19:51.663Z,150.30
2018-12-12T06:22:19.439Z,209.87
2018-12-12T06:24:46.895Z,205.60
2018-12-12T06:27:17.358Z,181.90
2018-12-12T06:29:44.830Z,188.93
2018-12-12T06:32:12.270Z,127.40
2018-12-12T06:34:41.186Z,89.92
2018-12-12T06:37:11.759Z,148.65
2018-12-12T06:39:39.295Z,278.63
2018-12-12T06:42:06.768Z,235.33
2018-12-12T06:44:34.266Z,328.00
2018-12-12T06:47:05.517Z,428.10
2018-12-12T06:49:33.023Z,246.43
2018-12-12T06:52:00.543Z,182.45
2018-12-12T06:54:28.029Z,348.65
2018-12-12T06:56:58.881Z,184.87
2018-12-12T06:59:26.319Z,182.47
2018-12-12T07:01:53.848Z,110.57
2018-12-12T07:04:21.393Z,95.60
2018-12-12T07:06:55.028Z,187.10
2018-12-12T07:09:22.492Z,86.20
2018-12-12T07:11:50.025Z,188.15
2018-12-12T07:14:17.480Z,315.85
2018-12-12T07:16:47.985Z,134.18
2018-12-12T07:19:15.491Z,85.63
2018-12-12T07:21:43.383Z,159.33
2018-12-12T07:24:10.843Z,257.60
2018-12-12T07:26:41.995Z,86.97
2018-12-12T07:29:09.563Z,144.47
2018-12-12T07:31:37.079Z,193.10
2018-12-12T07:34:04.611Z,103.60
2018-12-12T07:36:35.786Z,97.53
2018-12-12T07:39:05.819Z,155.80
2018-12-12T07:41:33.424Z,126.67
2018-12-12T07:44:00.858Z,112.67
2018-12-12T07:46:32.578Z,117.40
2018-12-12T07:49:01.054Z,195.67
2018-12-12T07:51:28.527Z,128.33
2018-12-12T07:53:56.772Z,97.23
2018-12-12T07:56:30.768Z,90.00
2018-12-12T07:58:58.205Z,90.93
2018-12-12T08:01:25.739Z,71.80
2018-12-12T08:03:53.207Z,164.30
2018-12-12T08:06:23.685Z,97.37
2018-12-12T08:08:51.147Z,106.73
2018-12-12T08:11:18.615Z,87.87
2018-12-12T08:13:46.070Z,92.47
2018-12-12T08:16:17.618Z,58.87
2018-12-12T08:18:45.069Z,82.80
2018-12-12T08:21:12.529Z,63.60
2018-12-12T08:23:39.994Z,73.60
2018-12-12T08:26:10.559Z,54.43
2018-12-12T08:28:38.013Z,59.73
2018-12-12T08:31:05.472Z,81.40
2018-12-12T08:33:32.925Z,107.20
2018-12-12T08:36:03.748Z,52.50
2018-12-12T08:38:31.210Z,69.27
2018-12-12T08:40:58.648Z,50.27
2018-12-12T08:43:26.107Z,49.67
2018-12-12T08:45:56.821Z,59.33
2018-12-12T08:48:24.268Z,46.83
2018-12-12T08:50:51.733Z,108.57
2018-12-12T08:53:19.179Z,156.30
2018-12-12T08:55:49.899Z,72.67
2018-12-12T08:58:17.352Z,86.77
2018-12-12T09:00:44.849Z,72.27
2018-12-12T09:03:17.545Z,95.27
2018-12-12T09:05:44.844Z,60.10
2018-12-12T09:08:12.274Z,44.50
2018-12-12T09:10:39.813Z,59.93
2018-12-12T09:13:07.264Z,133.63
2018-12-12T09:15:37.736Z,117.70
2018-12-12T09:18:05.177Z,54.93
2018-12-12T09:20:32.636Z,44.23
2018-12-12T09:23:00.153Z,51.53
2018-12-12T09:25:30.624Z,65.10
2018-12-12T09:27:58.083Z,45.07
2018-12-12T09:30:25.582Z,45.83
2018-12-12T09:32:53.039Z,47.97
2018-12-12T09:35:23.699Z,45.13
2018-12-12T09:37:51.145Z,37.17
2018-12-12T09:40:18.648Z,49.23
2018-12-12T09:42:46.098Z,44.37
2018-12-12T09:45:21.722Z,140.47
2018-12-12T09:47:46.419Z,54.07
2018-12-12T09:50:13.882Z,42.60
2018-12-12T09:52:41.317Z,59.90
2018-12-12T09:55:08.796Z,42.07
2018-12-12T09:57:36.229Z,82.17
2018-12-12T10:00:04.662Z,115.20
2018-12-12T10:02:32.102Z,106.23
2018-12-12T10:04:59.558Z,47.40
2018-12-12T10:07:30.206Z,38.30
2018-12-12T10:09:57.671Z,50.90
2018-12-12T10:12:25.114Z,65.53
2018-12-12T10:14:52.563Z,70.90
2018-12-12T10:17:23.418Z,50.70
2018-12-12T10:19:50.883Z,44.67
2018-12-12T10:22:18.358Z,37.67
2018-12-12T10:24:45.795Z,53.03
2018-12-12T10:27:16.493Z,42.97
2018-12-12T10:29:43.923Z,40.43
2018-12-12T10:32:11.444Z,36.80
2018-12-12T10:34:38.909Z,33.97
2018-12-12T10:37:09.693Z,42.60
2018-12-12T10:39:37.155Z,40.30
2018-12-12T10:42:04.714Z,42.27
2018-12-12T10:44:33.388Z,49.77
2018-12-12T10:47:04.547Z,52.63
2018-12-12T10:49:32.020Z,50.70
2018-12-12T10:51:59.522Z,43.13
2018-12-12T10:54:27.014Z,65.13
2018-12-12T10:56:57.372Z,46.97
2018-12-12T10:59:24.802Z,39.40
2018-12-12T11:01:54.288Z,53.77
2018-12-12T11:04:21.784Z,53.53
2018-12-12T11:06:52.848Z,102.60
2018-12-12T11:09:20.288Z,46.30
2018-12-12T11:11:47.817Z,119.83
2018-12-12T11:14:15.274Z,61.13
2018-12-12T11:16:45.913Z,50.63
2018-12-12T11:19:13.363Z,53.17
2018-12-12T11:21:40.831Z,49.33
2018-12-12T11:24:08.279Z,54.00
2018-12-12T11:26:38.715Z,49.50
2018-12-12T11:29:06.157Z,45.60
2018-12-12T11:31:33.614Z,49.30
2018-12-12T11:34:01.110Z,39.33
2018-12-12T11:36:31.704Z,46.97
2018-12-12T11:38:59.179Z,39.50
2018-12-12T11:41:26.651Z,32.23
2018-12-12T11:43:54.092Z,33.53
2018-12-12T11:46:25.119Z,34.57
2018-12-12T11:48:52.821Z,35.40
2018-12-12T11:51:20.344Z,35.80
2018-12-12T11:53:47.805Z,30.97
2018-12-12T11:56:18.519Z,33.93
2018-12-12T11:58:46.068Z,33.97
2018-12-12T12:01:13.543Z,33.90
2018-12-12T12:03:40.992Z,33.33
2018-12-12T12:06:14.287Z,29.60
2018-12-12T12:08:41.736Z,35.13
2018-12-12T12:11:09.199Z,30.47
2018-12-12T12:13:36.707Z,29.90
2018-12-12T12:16:07.198Z,31.47
2018-12-12T12:18:34.655Z,32.57
2018-12-12T12:21:02.110Z,28.57
2018-12-12T12:23:29.680Z,29.87
2018-12-12T12:26:00.439Z,34.47
2018-12-12T12:28:27.916Z,31.80
2018-12-12T12:30:55.973Z,27.23
2018-12-12T12:33:23.422Z,27.87
2018-12-12T12:35:56.736Z,22.97
2018-12-12T12:38:24.186Z,21.97
2018-12-12T12:40:51.635Z,21.07
2018-12-12T12:43:19.091Z,16.40
2018-12-12T12:45:49.708Z,15.87
2018-12-12T12:48:17.285Z,14.37
2018-12-12T12:50:44.791Z,13.33
2018-12-12T12:53:12.272Z,11.87
2018-12-12T12:55:42.933Z,12.30
2018-12-12T12:58:10.391Z,10.47
2018-12-12T13:00:37.831Z,12.07
2018-12-12T13:03:05.314Z,13.43
2018-12-12T13:05:35.987Z,13.33
2018-12-12T13:08:03.520Z,12.20
2018-12-12T13:10:31.204Z,13.10
2018-12-12T13:12:58.815Z,14.43
2018-12-12T13:15:30.262Z,12.33
2018-12-12T13:17:57.711Z,13.13
2018-12-12T13:20:25.154Z,10.80
2018-12-12T13:22:52.850Z,13.03
2018-12-12T13:25:24.095Z,11.73
2018-12-12T13:27:51.603Z,10.17
2018-12-12T13:30:19.019Z,11.47
2018-12-12T13:32:46.524Z,8.30
2018-12-12T13:35:17.264Z,9.90
2018-12-12T13:37:44.717Z,8.57
2018-12-12T13:40:12.160Z,8.77
2018-12-12T13:42:39.671Z,9.30
2018-12-12T13:45:07.123Z,10.77
2018-12-12T13:47:34.644Z,12.57
2018-12-12T13:50:02.215Z,9.37
2018-12-12T13:52:29.660Z,11.13
2018-12-12T13:54:57.106Z,9.83
2018-12-12T13:57:27.968Z,7.77
2018-12-12T13:59:55.427Z,8.53
2018-12-12T14:02:22.858Z,8.50
2018-12-12T14:04:50.319Z,12.10
2018-12-12T14:07:21.082Z,10.93
2018-12-12T14:09:48.543Z,9.20
2018-12-12T14:12:17.476Z,9.47
2018-12-12T14:14:45.756Z,7.43
2018-12-12T14:17:16.178Z,12.67
2018-12-12T14:19:43.662Z,9.97
2018-12-12T14:22:11.156Z,8.63
2018-12-12T14:24:38.635Z,9.37
2018-12-12T14:27:09.040Z,9.33
2018-12-12T14:29:36.496Z,8.13
2018-12-12T14:32:03.953Z,8.20
2018-12-12T14:34:31.397Z,9.90
2018-12-12T14:37:04.776Z,9.93
2018-12-12T14:39:32.231Z,11.40
2018-12-12T14:41:59.660Z,9.90
2018-12-12T14:44:27.111Z,8.93
2018-12-12T14:46:57.994Z,8.17
2018-12-12T14:49:25.554Z,8.80
2018-12-12T14:51:53.001Z,7.57
2018-12-12T14:54:20.459Z,8.57
2018-12-12T14:56:50.815Z,9.67
2018-12-12T14:59:18.274Z,8.80
2018-12-12T15:01:45.696Z,8.80
2018-12-12T15:04:13.167Z,10.77
2018-12-12T15:06:43.753Z,8.53
2018-12-12T15:09:11.208Z,8.37
2018-12-12T15:11:38.642Z,11.03
2018-12-12T15:14:06.101Z,11.17
2018-12-12T15:16:36.731Z,11.57
2018-12-12T15:19:04.259Z,7.20
2018-12-12T15:21:31.674Z,8.90
2018-12-12T15:23:59.135Z,7.73
2018-12-12T15:26:29.602Z,10.27
2018-12-12T15:28:57.097Z,8.60
2018-12-12T15:31:24.567Z,10.13
2018-12-12T15:33:51.992Z,8.17
2018-12-12T15:36:22.494Z,8.97
2018-12-12T15:38:49.957Z,9.43
2018-12-12T15:41:17.416Z,10.93
2018-12-12T15:43:44.909Z,11.47
2018-12-12T15:46:15.335Z,10.50
2018-12-12T15:48:42.775Z,11.23
2018-12-12T15:51:10.239Z,10.53
2018-12-12T15:53:37.692Z,10.37
2018-12-12T15:56:08.470Z,10.27
2018-12-12T15:58:35.905Z,9.57
2018-12-12T16:01:03.443Z,12.17
2018-12-12T16:03:30.871Z,8.50
2018-12-12T16:06:01.606Z,7.23
2018-12-12T16:08:29.018Z,9.37
2018-12-12T16:10:56.480Z,26.50
2018-12-12T16:13:23.931Z,10.63
2018-12-12T16:15:55.199Z,9.70
2018-12-12T16:18:22.627Z,11.90
2018-12-12T16:20:50.087Z,10.33
2018-12-12T16:23:17.536Z,12.03
2018-12-12T16:25:48.237Z,9.67
2018-12-12T16:28:15.670Z,12.10
2018-12-12T16:30:43.121Z,9.93
2018-12-12T16:33:10.572Z,10.80
2018-12-12T16:35:41.492Z,11.07
2018-12-12T16:38:08.937Z,11.60
2018-12-12T16:40:36.406Z,11.67
2018-12-12T16:43:03.889Z,15.20
2018-12-12T16:45:34.443Z,11.17
2018-12-12T16:48:01.876Z,24.40
2018-12-12T16:50:29.367Z,11.60
2018-12-12T16:52:58.044Z,11.17
2018-12-12T16:55:29.453Z,13.13
2018-12-12T16:57:57.008Z,12.27
2018-12-12T17:00:25.167Z,11.93
2018-12-12T17:02:54.414Z,14.10
2018-12-12T17:05:25.574Z,13.57
2018-12-12T17:07:53.003Z,14.60
2018-12-12T17:10:20.893Z,14.97
2018-12-12T17:12:48.401Z,11.10
2018-12-12T17:15:22.482Z,12.27
2018-12-12T17:17:49.919Z,10.97
2018-12-12T17:20:17.895Z,17.87
2018-12-12T17:22:45.308Z,19.33
2018-12-12T17:25:17.296Z,12.97
2018-12-12T17:27:44.766Z,10.83
2018-12-12T17:30:13.203Z,10.73
2018-12-12T17:32:41.485Z,12.93
2018-12-12T17:35:09.187Z,15.57
2018-12-12T17:37:36.720Z,13.50
2018-12-12T17:40:04.672Z,16.03
2018-12-12T17:42:32.585Z,10.17
2018-12-12T17:45:00.052Z,10.63
2018-12-12T17:47:34.258Z,12.60
2018-12-12T17:50:02.230Z,12.60
2018-12-12T17:52:29.647Z,12.83
2018-12-12T17:54:57.102Z,12.23
2018-12-12T17:57:28.259Z,12.33
2018-12-12T17:59:55.786Z,13.67
2018-12-12T18:02:23.239Z,13.23
2018-12-12T18:04:51.358Z,14.63
2018-12-12T18:07:22.227Z,15.70
2018-12-12T18:09:50.551Z,13.73
2018-12-12T18:12:17.986Z,14.53
2018-12-12T18:14:46.345Z,11.37
2018-12-12T18:17:17.421Z,13.73
2018-12-12T18:19:44.856Z,13.03
2018-12-12T18:22:12.311Z,17.90
2018-12-12T18:24:39.747Z,11.83
2018-12-12T18:27:10.461Z,10.83
2018-12-12T18:29:37.885Z,14.63
2018-12-12T18:32:05.390Z,10.97
2018-12-12T18:34:32.832Z,14.57
2018-12-12T18:37:03.512Z,14.80
2018-12-12T18:39:30.997Z,11.13
2018-12-12T18:41:58.451Z,11.37
2018-12-12T18:44:26.443Z,11.83
2018-12-12T18:46:57.323Z,8.77
2018-12-12T18:49:24.792Z,11.33
2018-12-12T18:51:52.243Z,10.07
2018-12-12T18:54:19.683Z,12.37
2018-12-12T18:56:50.515Z,13.03
2018-12-12T18:59:17.971Z,10.50
2018-12-12T19:01:45.431Z,11.87
2018-12-12T19:04:12.882Z,10.80
2018-12-12T19:06:45.844Z,10.47
2018-12-12T19:09:13.291Z,11.50
2018-12-12T19:11:44.350Z,10.77
2018-12-12T19:14:10.236Z,8.57
2018-12-12T19:16:41.297Z,9.53
2018-12-12T19:19:08.815Z,10.13
2018-12-12T19:21:36.289Z,10.43
2018-12-12T19:24:03.778Z,8.40
2018-12-12T19:26:34.718Z,10.30
2018-12-12T19:29:02.206Z,12.47
2018-12-12T19:31:38.131Z,11.93
2018-12-12T19:34:06.695Z,9.50
2018-12-12T19:36:39.863Z,9.57
2018-12-12T19:39:07.656Z,8.80
2018-12-12T19:41:42.232Z,11.53
2018-12-12T19:44:09.679Z,9.90
2018-12-12T19:46:44.411Z,10.20
2018-12-12T19:49:13.636Z,9.93
2018-12-12T19:51:41.223Z,9.57
2018-12-12T19:54:08.664Z,8.23
2018-12-12T19:56:39.538Z,10.43
2018-12-12T19:59:06.975Z,11.30
2018-12-12T20:01:34.422Z,9.23
2018-12-12T20:04:01.857Z,11.37
2018-12-12T20:06:32.594Z,12.43
2018-12-12T20:09:00.894Z,9.30
2018-12-12T20:11:31.916Z,9.30
2018-12-12T20:13:59.359Z,9.87
2018-12-12T20:16:30.235Z,8.47
2018-12-12T20:18:57.794Z,7.80
2018-12-12T20:21:25.211Z,9.37
2018-12-12T20:23:52.778Z,9.07
2018-12-12T20:26:23.414Z,12.07
2018-12-12T20:28:50.890Z,16.10
2018-12-12T20:31:19.322Z,10.93
2018-12-12T20:33:46.750Z,9.43
2018-12-12T20:36:17.636Z,9.20
2018-12-12T20:38:45.201Z,10.07
2018-12-12T20:41:12.679Z,18.73
2018-12-12T20:43:40.134Z,15.60
2018-12-12T20:46:11.311Z,9.13
2018-12-12T20:48:38.805Z,10.63
2018-12-12T20:51:06.298Z,10.80
2018-12-12T20:53:33.735Z,8.77
2018-12-12T20:56:07.430Z,7.77
2018-12-12T20:58:34.860Z,9.07
2018-12-12T21:01:02.306Z,9.37
2018-12-12T21:03:29.789Z,9.37
2018-12-12T21:06:00.567Z,9.47
2018-12-12T21:08:28.195Z,9.10
2018-12-12T21:10:55.655Z,10.13
2018-12-12T21:13:23.128Z,10.93
2018-12-12T21:15:53.605Z,8.27
2018-12-12T21:18:21.979Z,7.53
2018-12-12T21:20:49.470Z,8.07
2018-12-12T21:23:16.893Z,8.80
2018-12-12T21:25:47.890Z,9.17
2018-12-12T21:28:15.484Z,8.53
2018-12-12T21:30:42.961Z,8.17
2018-12-12T21:33:10.407Z,16.17
2018-12-12T21:35:41.655Z,8.57
2018-12-12T21:38:09.165Z,8.23
2018-12-12T21:40:36.604Z,8.67
2018-12-12T21:43:04.078Z,8.97
2018-12-12T21:45:34.711Z,7.40
2018-12-12T21:48:02.203Z,10.17
2018-12-12T21:50:39.315Z,9.17
2018-12-12T21:53:06.813Z,8.40
2018-12-12T21:55:37.479Z,7.03
2018-12-12T21:58:04.946Z,7.57
2018-12-12T22:00:32.459Z,7.30
2018-12-12T22:02:59.923Z,6.87
2018-12-12T22:05:30.671Z,7.53
2018-12-12T22:07:58.195Z,9.60
2018-12-12T22:10:25.655Z,8.27
2018-12-12T22:12:53.117Z,9.37
2018-12-12T22:15:24.503Z,8.53
2018-12-12T22:17:52.084Z,9.85
2018-12-12T22:20:19.518Z,8.03
2018-12-12T22:22:47.132Z,7.83
2018-12-12T22:25:17.460Z,8.63
2018-12-12T22:27:44.943Z,8.27
2018-12-12T22:30:12.442Z,7.00
2018-12-12T22:32:39.906Z,8.00
2018-12-12T22:35:08.119Z,8.23
2018-12-12T22:37:35.573Z,9.07
2018-12-12T22:40:03.695Z,9.17
2018-12-12T22:42:31.141Z,7.23
2018-12-12T22:44:58.596Z,9.03
2018-12-12T22:47:29.764Z,9.33
2018-12-12T22:49:58.088Z,9.43
2018-12-12T22:52:25.579Z,8.73
2018-12-12T22:54:53.019Z,10.87
2018-12-12T22:57:26.246Z,8.53
2018-12-12T22:59:53.703Z,8.80
2018-12-12T23:02:21.162Z,9.33
2018-12-12T23:04:48.594Z,7.67
2018-12-12T23:07:19.351Z,9.67
2018-12-12T23:09:47.689Z,10.37
2018-12-12T23:12:15.152Z,7.93
2018-12-12T23:14:42.627Z,8.73
2018-12-12T23:17:13.757Z,8.97
2018-12-12T23:19:42.025Z,9.90
2018-12-12T23:22:09.489Z,10.40
2018-12-12T23:24:37.023Z,10.32
2018-12-12T23:27:07.721Z,10.03
2018-12-12T23:29:35.185Z,8.75
2018-12-12T23:32:02.639Z,9.77
2018-12-12T23:34:30.082Z,11.20
2018-12-12T23:37:00.764Z,8.38
2018-12-12T23:39:28.215Z,9.70
2018-12-12T23:41:55.639Z,8.20
2018-12-12T23:44:23.070Z,9.98
2018-12-12T23:46:53.832Z,9.55
2018-12-12T23:49:21.265Z,10.80
2018-12-12T23:51:48.715Z,11.75
2018-12-12T23:54:16.165Z,9.20
2018-12-12T23:56:46.672Z,11.00
2018-12-12T23:59:14.107Z,11.30
